Terminal Aerodrome Forecast
Issued by NWS

Home | Current Version | Previous Version | Text Only | Print | Product List | Glossary On
Versions: 1 2 3 4 5 6 7 8 9 10 11 12 13 14 15 16 17 18 19 20
583
FTUS44 KLIX 011545 AAC
TAFMCB
TAF AMD
KMCB 011545Z 0116/0212 19006KT 3SM -RA BR VCTS SCT012 OVC035CB
     FM011700 17006KT 6SM TSRA OVC025CB
     FM011800 18007KT 6SM +SHRA OVC040
     FM012300 20006KT 6SM +SHRA OVC070
     FM020000 17005KT 5SM BR OVC070
     FM020700 VRB03KT 5SM BR BKN003=

USA.gov is the U.S. government's official web portal to all federal, state and local government web resources and services.